sensor_id;sensor_type;location;lat;lon;timestamp;temperature;humidity
53422;DHT22;39319;52.944;5.928;2023-07-22T00:01:09;16.80;95.80
53422;DHT22;39319;52.944;5.928;2023-07-22T00:03:35;16.90;95.90
53422;DHT22;39319;52.944;5.928;2023-07-22T00:08:31;16.90;95.60
53422;DHT22;39319;52.944;5.928;2023-07-22T00:10:57;17.00;95.30
53422;DHT22;39319;52.944;5.928;2023-07-22T00:13:25;16.90;95.60
53422;DHT22;39319;52.944;5.928;2023-07-22T00:15:55;16.90;95.40
53422;DHT22;39319;52.944;5.928;2023-07-22T00:18:21;16.90;95.50
53422;DHT22;39319;52.944;5.928;2023-07-22T00:20:47;17.00;95.40
53422;DHT22;39319;52.944;5.928;2023-07-22T00:23:13;16.90;95.40
53422;DHT22;39319;52.944;5.928;2023-07-22T00:25:41;16.90;95.30
53422;DHT22;39319;52.944;5.928;2023-07-22T00:28:08;16.90;95.60
53422;DHT22;39319;52.944;5.928;2023-07-22T00:30:35;16.80;95.80
53422;DHT22;39319;52.944;5.928;2023-07-22T00:33:01;16.70;96.00
53422;DHT22;39319;52.944;5.928;2023-07-22T00:35:27;16.70;96.10
53422;DHT22;39319;52.944;5.928;2023-07-22T00:37:52;16.70;96.10
53422;DHT22;39319;52.944;5.928;2023-07-22T00:40:22;16.60;96.10
53422;DHT22;39319;52.944;5.928;2023-07-22T00:42:48;16.60;96.30
53422;DHT22;39319;52.944;5.928;2023-07-22T00:45:14;16.50;96.20
53422;DHT22;39319;52.944;5.928;2023-07-22T00:47:39;16.50;96.10
53422;DHT22;39319;52.944;5.928;2023-07-22T00:50:07;16.40;96.20
53422;DHT22;39319;52.944;5.928;2023-07-22T00:52:34;16.40;96.30
53422;DHT22;39319;52.944;5.928;2023-07-22T00:55:00;16.30;96.30
53422;DHT22;39319;52.944;5.928;2023-07-22T00:57:26;16.30;96.40
53422;DHT22;39319;52.944;5.928;2023-07-22T00:59:52;16.30;96.40
53422;DHT22;39319;52.944;5.928;2023-07-22T01:02:19;16.20;96.40
53422;DHT22;39319;52.944;5.928;2023-07-22T01:04:45;16.10;96.50
53422;DHT22;39319;52.944;5.928;2023-07-22T01:07:11;16.10;96.50
53422;DHT22;39319;52.944;5.928;2023-07-22T01:09:41;16.00;96.50
53422;DHT22;39319;52.944;5.928;2023-07-22T01:12:07;16.00;96.70
53422;DHT22;39319;52.944;5.928;2023-07-22T01:14:34;15.90;96.80
53422;DHT22;39319;52.944;5.928;2023-07-22T01:17:05;15.90;96.80
53422;DHT22;39319;52.944;5.928;2023-07-22T01:19:32;15.80;96.80
53422;DHT22;39319;52.944;5.928;2023-07-22T01:22:03;15.80;96.80
53422;DHT22;39319;52.944;5.928;2023-07-22T01:24:30;15.80;96.80
53422;DHT22;39319;52.944;5.928;2023-07-22T01:26:56;15.80;96.90
53422;DHT22;39319;52.944;5.928;2023-07-22T01:29:25;15.70;96.90
53422;DHT22;39319;52.944;5.928;2023-07-22T01:31:53;15.70;96.80
53422;DHT22;39319;52.944;5.928;2023-07-22T01:34:20;15.60;96.90
53422;DHT22;39319;52.944;5.928;2023-07-22T01:36:47;15.60;97.00
53422;DHT22;39319;52.944;5.928;2023-07-22T01:39:16;15.60;97.10
53422;DHT22;39319;52.944;5.928;2023-07-22T01:41:47;15.50;97.10
53422;DHT22;39319;52.944;5.928;2023-07-22T01:44:13;15.50;97.10
53422;DHT22;39319;52.944;5.928;2023-07-22T01:46:40;15.40;97.20
53422;DHT22;39319;52.944;5.928;2023-07-22T01:49:10;15.40;97.30
53422;DHT22;39319;52.944;5.928;2023-07-22T01:51:36;15.40;97.20
53422;DHT22;39319;52.944;5.928;2023-07-22T01:54:08;15.40;97.30
53422;DHT22;39319;52.944;5.928;2023-07-22T01:56:35;15.30;97.40
53422;DHT22;39319;52.944;5.928;2023-07-22T01:59:01;15.40;97.50
53422;DHT22;39319;52.944;5.928;2023-07-22T02:01:27;15.40;97.70
53422;DHT22;39319;52.944;5.928;2023-07-22T02:03:54;15.40;97.80
53422;DHT22;39319;52.944;5.928;2023-07-22T02:06:20;15.40;97.90
53422;DHT22;39319;52.944;5.928;2023-07-22T02:08:48;15.40;98.00
53422;DHT22;39319;52.944;5.928;2023-07-22T02:11:14;15.40;98.10
53422;DHT22;39319;52.944;5.928;2023-07-22T02:13:40;15.50;98.30
53422;DHT22;39319;52.944;5.928;2023-07-22T02:16:05;15.50;98.50
53422;DHT22;39319;52.944;5.928;2023-07-22T02:18:31;15.50;98.50
53422;DHT22;39319;52.944;5.928;2023-07-22T02:20:57;15.50;98.60
53422;DHT22;39319;52.944;5.928;2023-07-22T02:23:25;15.60;98.70
53422;DHT22;39319;52.944;5.928;2023-07-22T02:25:52;15.60;98.70
53422;DHT22;39319;52.944;5.928;2023-07-22T02:28:19;15.60;98.70
53422;DHT22;39319;52.944;5.928;2023-07-22T02:30:51;15.60;98.70
53422;DHT22;39319;52.944;5.928;2023-07-22T02:33:18;15.70;98.80
53422;DHT22;39319;52.944;5.928;2023-07-22T02:35:44;15.60;98.90
53422;DHT22;39319;52.944;5.928;2023-07-22T02:38:10;15.70;98.90
53422;DHT22;39319;52.944;5.928;2023-07-22T02:40:36;15.70;99.20
53422;DHT22;39319;52.944;5.928;2023-07-22T02:43:02;15.80;99.00
53422;DHT22;39319;52.944;5.928;2023-07-22T02:45:29;15.70;99.30
53422;DHT22;39319;52.944;5.928;2023-07-22T02:47:55;15.80;99.30
53422;DHT22;39319;52.944;5.928;2023-07-22T02:50:21;15.80;99.40
53422;DHT22;39319;52.944;5.928;2023-07-22T02:52:46;15.90;99.50
53422;DHT22;39319;52.944;5.928;2023-07-22T02:55:16;15.90;99.50
53422;DHT22;39319;52.944;5.928;2023-07-22T02:57:46;16.00;99.20
53422;DHT22;39319;52.944;5.928;2023-07-22T03:00:13;16.00;99.30
53422;DHT22;39319;52.944;5.928;2023-07-22T03:02:42;16.00;99.30
53422;DHT22;39319;52.944;5.928;2023-07-22T03:05:09;16.10;99.40
53422;DHT22;39319;52.944;5.928;2023-07-22T03:07:39;16.10;99.40
53422;DHT22;39319;52.944;5.928;2023-07-22T03:10:05;16.10;99.60
53422;DHT22;39319;52.944;5.928;2023-07-22T03:12:32;16.10;99.70
53422;DHT22;39319;52.944;5.928;2023-07-22T03:14:58;16.20;99.60
53422;DHT22;39319;52.944;5.928;2023-07-22T03:17:24;16.10;99.70
53422;DHT22;39319;52.944;5.928;2023-07-22T03:19:50;16.20;99.90
53422;DHT22;39319;52.944;5.928;2023-07-22T03:22:17;16.10;99.90
53422;DHT22;39319;52.944;5.928;2023-07-22T03:24:46;16.20;99.90
53422;DHT22;39319;52.944;5.928;2023-07-22T03:27:12;16.20;99.90
53422;DHT22;39319;52.944;5.928;2023-07-22T03:29:40;16.10;99.90
53422;DHT22;39319;52.944;5.928;2023-07-22T03:32:06;16.10;99.90
53422;DHT22;39319;52.944;5.928;2023-07-22T03:34:34;16.10;99.90
53422;DHT22;39319;52.944;5.928;2023-07-22T03:37:00;16.10;99.90
53422;DHT22;39319;52.944;5.928;2023-07-22T03:39:26;16.10;99.90
53422;DHT22;39319;52.944;5.928;2023-07-22T03:41:51;16.10;99.90
53422;DHT22;39319;52.944;5.928;2023-07-22T03:44:17;16.20;99.90
53422;DHT22;39319;52.944;5.928;2023-07-22T03:46:43;16.20;99.90
53422;DHT22;39319;52.944;5.928;2023-07-22T03:49:09;16.20;99.90
53422;DHT22;39319;52.944;5.928;2023-07-22T03:51:34;16.20;99.90
53422;DHT22;39319;52.944;5.928;2023-07-22T03:54:00;16.20;99.90
53422;DHT22;39319;52.944;5.928;2023-07-22T03:56:26;16.20;99.90
53422;DHT22;39319;52.944;5.928;2023-07-22T03:58:52;16.20;99.90
53422;DHT22;39319;52.944;5.928;2023-07-22T04:01:18;16.20;99.90
53422;DHT22;39319;52.944;5.928;2023-07-22T04:03:44;16.20;99.90
53422;DHT22;39319;52.944;5.928;2023-07-22T04:06:10;16.20;99.90
53422;DHT22;39319;52.944;5.928;2023-07-22T04:08:36;16.20;99.90
53422;DHT22;39319;52.944;5.928;2023-07-22T04:11:02;16.20;99.90
53422;DHT22;39319;52.944;5.928;2023-07-22T04:13:28;16.20;99.90
53422;DHT22;39319;52.944;5.928;2023-07-22T04:15:56;16.20;99.90
53422;DHT22;39319;52.944;5.928;2023-07-22T04:18:22;16.20;99.90
53422;DHT22;39319;52.944;5.928;2023-07-22T04:20:54;16.20;99.90
53422;DHT22;39319;52.944;5.928;2023-07-22T04:23:20;16.20;99.90
53422;DHT22;39319;52.944;5.928;2023-07-22T04:25:46;16.20;99.90
53422;DHT22;39319;52.944;5.928;2023-07-22T04:28:12;16.20;99.90
53422;DHT22;39319;52.944;5.928;2023-07-22T04:30:38;16.20;99.90
53422;DHT22;39319;52.944;5.928;2023-07-22T04:33:05;16.20;99.90
53422;DHT22;39319;52.944;5.928;2023-07-22T04:35:32;16.20;99.90
53422;DHT22;39319;52.944;5.928;2023-07-22T04:37:58;16.20;99.90
53422;DHT22;39319;52.944;5.928;2023-07-22T04:40:24;16.30;99.90
53422;DHT22;39319;52.944;5.928;2023-07-22T04:42:51;16.30;99.90
53422;DHT22;39319;52.944;5.928;2023-07-22T04:45:17;16.30;99.90
53422;DHT22;39319;52.944;5.928;2023-07-22T04:47:45;16.30;99.90
53422;DHT22;39319;52.944;5.928;2023-07-22T04:50:13;16.20;99.90
53422;DHT22;39319;52.944;5.928;2023-07-22T04:52:41;16.30;99.90
53422;DHT22;39319;52.944;5.928;2023-07-22T04:55:07;16.30;99.90
53422;DHT22;39319;52.944;5.928;2023-07-22T04:57:36;16.30;99.90
53422;DHT22;39319;52.944;5.928;2023-07-22T05:00:03;16.30;99.90
53422;DHT22;39319;52.944;5.928;2023-07-22T05:02:32;16.30;99.90
53422;DHT22;39319;52.944;5.928;2023-07-22T05:04:58;16.40;99.90
53422;DHT22;39319;52.944;5.928;2023-07-22T05:07:24;16.40;99.90
53422;DHT22;39319;52.944;5.928;2023-07-22T05:09:50;16.40;99.90
53422;DHT22;39319;52.944;5.928;2023-07-22T05:12:17;16.50;99.90
53422;DHT22;39319;52.944;5.928;2023-07-22T05:14:45;16.50;99.90
53422;DHT22;39319;52.944;5.928;2023-07-22T05:17:11;16.50;99.90
53422;DHT22;39319;52.944;5.928;2023-07-22T05:19:37;16.50;99.90
53422;DHT22;39319;52.944;5.928;2023-07-22T05:22:03;16.60;99.90
53422;DHT22;39319;52.944;5.928;2023-07-22T05:24:28;16.60;99.90
53422;DHT22;39319;52.944;5.928;2023-07-22T05:26:56;16.60;99.90
53422;DHT22;39319;52.944;5.928;2023-07-22T05:29:25;16.60;99.90
53422;DHT22;39319;52.944;5.928;2023-07-22T05:31:50;16.70;99.90
53422;DHT22;39319;52.944;5.928;2023-07-22T05:34:16;16.80;99.90
53422;DHT22;39319;52.944;5.928;2023-07-22T05:36:44;16.70;99.90
53422;DHT22;39319;52.944;5.928;2023-07-22T05:39:12;16.70;99.90
53422;DHT22;39319;52.944;5.928;2023-07-22T05:41:38;16.70;99.90
53422;DHT22;39319;52.944;5.928;2023-07-22T05:44:04;16.90;99.90
53422;DHT22;39319;52.944;5.928;2023-07-22T05:46:29;16.80;99.90
53422;DHT22;39319;52.944;5.928;2023-07-22T05:48:55;16.90;99.90
53422;DHT22;39319;52.944;5.928;2023-07-22T05:51:21;16.90;99.90
53422;DHT22;39319;52.944;5.928;2023-07-22T05:53:48;16.90;99.90
53422;DHT22;39319;52.944;5.928;2023-07-22T05:56:13;17.00;99.90
53422;DHT22;39319;52.944;5.928;2023-07-22T05:58:39;17.00;99.90
53422;DHT22;39319;52.944;5.928;2023-07-22T06:01:05;17.10;99.90
53422;DHT22;39319;52.944;5.928;2023-07-22T06:03:30;17.00;99.90
53422;DHT22;39319;52.944;5.928;2023-07-22T06:05:56;17.10;99.90
53422;DHT22;39319;52.944;5.928;2023-07-22T06:08:22;17.10;99.90
53422;DHT22;39319;52.944;5.928;2023-07-22T06:10:47;17.10;99.90
53422;DHT22;39319;52.944;5.928;2023-07-22T06:13:15;17.10;99.90
53422;DHT22;39319;52.944;5.928;2023-07-22T06:15:41;17.20;99.90
53422;DHT22;39319;52.944;5.928;2023-07-22T06:18:07;17.20;99.90
53422;DHT22;39319;52.944;5.928;2023-07-22T06:20:34;17.30;99.90
53422;DHT22;39319;52.944;5.928;2023-07-22T06:23:01;17.30;99.90
53422;DHT22;39319;52.944;5.928;2023-07-22T06:25:27;17.30;99.90
53422;DHT22;39319;52.944;5.928;2023-07-22T06:27:53;17.50;99.90
53422;DHT22;39319;52.944;5.928;2023-07-22T06:30:21;17.40;99.90
53422;DHT22;39319;52.944;5.928;2023-07-22T06:32:47;17.50;99.90
53422;DHT22;39319;52.944;5.928;2023-07-22T06:35:13;17.60;99.90
53422;DHT22;39319;52.944;5.928;2023-07-22T06:37:39;17.60;99.90
53422;DHT22;39319;52.944;5.928;2023-07-22T06:40:06;17.60;99.90
53422;DHT22;39319;52.944;5.928;2023-07-22T06:42:32;17.60;99.90
53422;DHT22;39319;52.944;5.928;2023-07-22T06:44:58;17.70;99.90
53422;DHT22;39319;52.944;5.928;2023-07-22T06:47:24;17.70;99.90
53422;DHT22;39319;52.944;5.928;2023-07-22T06:49:51;17.80;99.90
53422;DHT22;39319;52.944;5.928;2023-07-22T06:52:20;17.80;99.90
53422;DHT22;39319;52.944;5.928;2023-07-22T06:54:46;17.90;99.90
53422;DHT22;39319;52.944;5.928;2023-07-22T06:57:11;17.90;99.90
53422;DHT22;39319;52.944;5.928;2023-07-22T06:59:37;18.00;99.90
53422;DHT22;39319;52.944;5.928;2023-07-22T07:02:05;18.00;99.90
53422;DHT22;39319;52.944;5.928;2023-07-22T07:04:31;18.00;99.90
53422;DHT22;39319;52.944;5.928;2023-07-22T07:06:56;18.10;99.90
53422;DHT22;39319;52.944;5.928;2023-07-22T07:09:22;18.10;99.90
53422;DHT22;39319;52.944;5.928;2023-07-22T07:11:48;18.10;99.90
53422;DHT22;39319;52.944;5.928;2023-07-22T07:14:16;18.20;99.90
53422;DHT22;39319;52.944;5.928;2023-07-22T07:16:41;18.30;99.90
53422;DHT22;39319;52.944;5.928;2023-07-22T07:19:07;18.30;99.90
53422;DHT22;39319;52.944;5.928;2023-07-22T07:21:33;18.40;99.90
53422;DHT22;39319;52.944;5.928;2023-07-22T07:23:58;18.50;99.90
53422;DHT22;39319;52.944;5.928;2023-07-22T07:26:24;18.50;99.90
53422;DHT22;39319;52.944;5.928;2023-07-22T07:28:53;18.60;99.90
53422;DHT22;39319;52.944;5.928;2023-07-22T07:31:19;18.70;99.90
53422;DHT22;39319;52.944;5.928;2023-07-22T07:33:45;18.70;99.90
53422;DHT22;39319;52.944;5.928;2023-07-22T07:36:11;18.70;99.90
53422;DHT22;39319;52.944;5.928;2023-07-22T07:38:36;18.70;99.90
53422;DHT22;39319;52.944;5.928;2023-07-22T07:41:04;18.80;99.80
53422;DHT22;39319;52.944;5.928;2023-07-22T07:43:31;18.80;99.50
53422;DHT22;39319;52.944;5.928;2023-07-22T07:46:20;18.90;99.60
53422;DHT22;39319;52.944;5.928;2023-07-22T07:48:49;18.90;99.50
53422;DHT22;39319;52.944;5.928;2023-07-22T07:51:16;19.00;99.30
53422;DHT22;39319;52.944;5.928;2023-07-22T07:53:42;19.00;99.40
53422;DHT22;39319;52.944;5.928;2023-07-22T07:56:09;19.00;99.10
53422;DHT22;39319;52.944;5.928;2023-07-22T07:58:36;19.10;98.90
53422;DHT22;39319;52.944;5.928;2023-07-22T08:01:02;19.10;98.90
53422;DHT22;39319;52.944;5.928;2023-07-22T08:03:27;19.00;98.60
53422;DHT22;39319;52.944;5.928;2023-07-22T08:05:53;19.00;99.20
53422;DHT22;39319;52.944;5.928;2023-07-22T08:08:20;18.90;99.30
53422;DHT22;39319;52.944;5.928;2023-07-22T08:10:46;18.90;99.40
53422;DHT22;39319;52.944;5.928;2023-07-22T08:13:12;18.90;99.50
53422;DHT22;39319;52.944;5.928;2023-07-22T08:15:37;18.80;99.90
53422;DHT22;39319;52.944;5.928;2023-07-22T08:18:07;18.70;99.90
53422;DHT22;39319;52.944;5.928;2023-07-22T08:20:33;18.70;99.50
53422;DHT22;39319;52.944;5.928;2023-07-22T08:22:58;18.60;99.20
53422;DHT22;39319;52.944;5.928;2023-07-22T08:25:24;18.50;99.70
53422;DHT22;39319;52.944;5.928;2023-07-22T08:27:50;18.50;99.60
53422;DHT22;39319;52.944;5.928;2023-07-22T08:30:15;18.30;99.90
53422;DHT22;39319;52.944;5.928;2023-07-22T08:32:41;18.30;99.90
53422;DHT22;39319;52.944;5.928;2023-07-22T08:35:11;18.40;99.90
53422;DHT22;39319;52.944;5.928;2023-07-22T08:37:37;18.30;99.90
53422;DHT22;39319;52.944;5.928;2023-07-22T08:40:03;18.30;99.90
53422;DHT22;39319;52.944;5.928;2023-07-22T08:42:35;18.30;99.90
53422;DHT22;39319;52.944;5.928;2023-07-22T08:45:06;18.40;99.90
53422;DHT22;39319;52.944;5.928;2023-07-22T08:47:46;18.30;99.90
53422;DHT22;39319;52.944;5.928;2023-07-22T08:50:20;18.50;99.90
53422;DHT22;39319;52.944;5.928;2023-07-22T08:52:48;18.50;99.90
53422;DHT22;39319;52.944;5.928;2023-07-22T08:55:14;18.50;99.90
53422;DHT22;39319;52.944;5.928;2023-07-22T08:57:41;18.50;99.90
53422;DHT22;39319;52.944;5.928;2023-07-22T09:00:10;18.50;99.90
53422;DHT22;39319;52.944;5.928;2023-07-22T09:02:37;18.50;99.90
53422;DHT22;39319;52.944;5.928;2023-07-22T09:05:06;18.50;99.90
53422;DHT22;39319;52.944;5.928;2023-07-22T09:07:33;18.50;99.90
53422;DHT22;39319;52.944;5.928;2023-07-22T09:09:59;18.60;99.90
53422;DHT22;39319;52.944;5.928;2023-07-22T09:12:25;18.60;99.90
53422;DHT22;39319;52.944;5.928;2023-07-22T09:14:52;18.60;99.90
53422;DHT22;39319;52.944;5.928;2023-07-22T09:17:18;18.50;99.90
53422;DHT22;39319;52.944;5.928;2023-07-22T09:19:52;18.50;99.90
53422;DHT22;39319;52.944;5.928;2023-07-22T09:22:18;18.50;99.90
53422;DHT22;39319;52.944;5.928;2023-07-22T09:24:44;18.50;99.90
53422;DHT22;39319;52.944;5.928;2023-07-22T09:27:10;18.50;99.30
53422;DHT22;39319;52.944;5.928;2023-07-22T09:29:37;18.60;99.40
53422;DHT22;39319;52.944;5.928;2023-07-22T09:32:03;18.50;99.50
53422;DHT22;39319;52.944;5.928;2023-07-22T09:34:29;18.50;99.70
53422;DHT22;39319;52.944;5.928;2023-07-22T09:36:57;18.50;99.40
53422;DHT22;39319;52.944;5.928;2023-07-22T09:39:23;18.50;99.20
53422;DHT22;39319;52.944;5.928;2023-07-22T09:41:50;18.60;98.70
53422;DHT22;39319;52.944;5.928;2023-07-22T09:44:16;18.50;99.20
53422;DHT22;39319;52.944;5.928;2023-07-22T09:46:49;18.50;99.50
53422;DHT22;39319;52.944;5.928;2023-07-22T09:49:17;18.50;99.60
53422;DHT22;39319;52.944;5.928;2023-07-22T09:51:45;18.50;99.50
53422;DHT22;39319;52.944;5.928;2023-07-22T09:54:11;18.50;99.20
53422;DHT22;39319;52.944;5.928;2023-07-22T09:56:45;18.50;99.30
53422;DHT22;39319;52.944;5.928;2023-07-22T09:59:11;18.50;99.60
53422;DHT22;39319;52.944;5.928;2023-07-22T10:01:44;18.50;99.60
53422;DHT22;39319;52.944;5.928;2023-07-22T10:04:15;18.40;99.90
53422;DHT22;39319;52.944;5.928;2023-07-22T10:06:43;18.40;99.90
53422;DHT22;39319;52.944;5.928;2023-07-22T10:09:11;18.40;99.90
53422;DHT22;39319;52.944;5.928;2023-07-22T10:11:39;18.30;99.90
53422;DHT22;39319;52.944;5.928;2023-07-22T10:14:07;18.40;99.90
53422;DHT22;39319;52.944;5.928;2023-07-22T10:16:36;18.30;99.90
53422;DHT22;39319;52.944;5.928;2023-07-22T10:19:02;18.40;99.90
53422;DHT22;39319;52.944;5.928;2023-07-22T10:21:30;18.40;99.90
53422;DHT22;39319;52.944;5.928;2023-07-22T10:23:59;18.40;99.90
53422;DHT22;39319;52.944;5.928;2023-07-22T10:26:25;18.40;99.90
53422;DHT22;39319;52.944;5.928;2023-07-22T10:28:55;18.30;99.90
53422;DHT22;39319;52.944;5.928;2023-07-22T10:31:22;18.40;99.90
53422;DHT22;39319;52.944;5.928;2023-07-22T10:33:48;18.30;99.90
53422;DHT22;39319;52.944;5.928;2023-07-22T10:36:15;18.40;99.90
53422;DHT22;39319;52.944;5.928;2023-07-22T10:38:54;18.30;99.90
53422;DHT22;39319;52.944;5.928;2023-07-22T10:41:20;18.30;99.90
53422;DHT22;39319;52.944;5.928;2023-07-22T10:43:54;18.30;99.90
53422;DHT22;39319;52.944;5.928;2023-07-22T10:46:36;18.30;99.90
53422;DHT22;39319;52.944;5.928;2023-07-22T10:49:16;18.30;99.90
53422;DHT22;39319;52.944;5.928;2023-07-22T10:51:48;18.30;99.90
53422;DHT22;39319;52.944;5.928;2023-07-22T10:54:15;18.40;99.90
53422;DHT22;39319;52.944;5.928;2023-07-22T10:56:56;18.40;99.90
53422;DHT22;39319;52.944;5.928;2023-07-22T10:59:26;18.50;99.90
53422;DHT22;39319;52.944;5.928;2023-07-22T11:01:53;18.60;99.90
53422;DHT22;39319;52.944;5.928;2023-07-22T11:04:23;18.60;99.90
53422;DHT22;39319;52.944;5.928;2023-07-22T11:06:59;18.60;99.90
53422;DHT22;39319;52.944;5.928;2023-07-22T11:12:14;18.60;99.90
53422;DHT22;39319;52.944;5.928;2023-07-22T11:14:52;18.70;99.90
53422;DHT22;39319;52.944;5.928;2023-07-22T11:17:31;18.70;99.90
53422;DHT22;39319;52.944;5.928;2023-07-22T11:19:58;18.70;99.90
53422;DHT22;39319;52.944;5.928;2023-07-22T11:22:24;18.70;99.90
53422;DHT22;39319;52.944;5.928;2023-07-22T11:24:50;18.70;99.90
53422;DHT22;39319;52.944;5.928;2023-07-22T11:27:16;18.70;99.90
53422;DHT22;39319;52.944;5.928;2023-07-22T11:29:41;18.70;99.90
53422;DHT22;39319;52.944;5.928;2023-07-22T11:32:18;18.60;99.90
53422;DHT22;39319;52.944;5.928;2023-07-22T11:34:44;18.70;99.90
53422;DHT22;39319;52.944;5.928;2023-07-22T11:37:10;18.70;99.90
53422;DHT22;39319;52.944;5.928;2023-07-22T11:39:38;18.70;99.90
53422;DHT22;39319;52.944;5.928;2023-07-22T11:42:07;18.60;99.90
53422;DHT22;39319;52.944;5.928;2023-07-22T11:44:33;18.60;99.90
53422;DHT22;39319;52.944;5.928;2023-07-22T11:47:04;18.50;99.90
53422;DHT22;39319;52.944;5.928;2023-07-22T11:52:06;18.50;99.90
53422;DHT22;39319;52.944;5.928;2023-07-22T11:54:40;18.40;99.90
53422;DHT22;39319;52.944;5.928;2023-07-22T11:59:45;18.40;99.90
53422;DHT22;39319;52.944;5.928;2023-07-22T12:02:16;18.40;99.90
53422;DHT22;39319;52.944;5.928;2023-07-22T12:07:29;18.50;99.90
53422;DHT22;39319;52.944;5.928;2023-07-22T12:09:56;18.50;99.90
53422;DHT22;39319;52.944;5.928;2023-07-22T12:15:18;18.60;99.90
53422;DHT22;39319;52.944;5.928;2023-07-22T12:17:55;18.70;99.90
53422;DHT22;39319;52.944;5.928;2023-07-22T12:20:29;18.70;99.90
53422;DHT22;39319;52.944;5.928;2023-07-22T12:22:56;18.70;99.90
53422;DHT22;39319;52.944;5.928;2023-07-22T12:25:22;18.80;99.90
53422;DHT22;39319;52.944;5.928;2023-07-22T12:27:48;18.80;99.90
53422;DHT22;39319;52.944;5.928;2023-07-22T12:30:15;18.80;99.90
53422;DHT22;39319;52.944;5.928;2023-07-22T12:32:41;18.80;99.90
53422;DHT22;39319;52.944;5.928;2023-07-22T12:35:08;18.90;99.90
53422;DHT22;39319;52.944;5.928;2023-07-22T12:37:34;19.00;99.90
53422;DHT22;39319;52.944;5.928;2023-07-22T12:40:00;19.00;99.90
53422;DHT22;39319;52.944;5.928;2023-07-22T12:42:26;19.10;99.90
53422;DHT22;39319;52.944;5.928;2023-07-22T12:44:52;19.10;99.90
53422;DHT22;39319;52.944;5.928;2023-07-22T12:47:18;19.30;99.60
53422;DHT22;39319;52.944;5.928;2023-07-22T12:49:46;19.30;99.60
53422;DHT22;39319;52.944;5.928;2023-07-22T12:52:11;19.40;99.80
53422;DHT22;39319;52.944;5.928;2023-07-22T12:54:38;19.50;98.80
53422;DHT22;39319;52.944;5.928;2023-07-22T12:57:04;19.60;98.00
53422;DHT22;39319;52.944;5.928;2023-07-22T12:59:30;19.60;97.50
53422;DHT22;39319;52.944;5.928;2023-07-22T13:01:57;19.70;96.90
53422;DHT22;39319;52.944;5.928;2023-07-22T13:04:24;19.60;97.20
53422;DHT22;39319;52.944;5.928;2023-07-22T13:06:50;19.60;97.20
53422;DHT22;39319;52.944;5.928;2023-07-22T13:09:18;19.60;96.80
53422;DHT22;39319;52.944;5.928;2023-07-22T13:11:46;19.60;96.30
53422;DHT22;39319;52.944;5.928;2023-07-22T13:14:12;19.80;96.30
53422;DHT22;39319;52.944;5.928;2023-07-22T13:16:38;19.80;96.60
53422;DHT22;39319;52.944;5.928;2023-07-22T13:19:05;19.80;96.20
53422;DHT22;39319;52.944;5.928;2023-07-22T13:21:33;19.90;96.30
53422;DHT22;39319;52.944;5.928;2023-07-22T13:23:59;19.90;96.70
53422;DHT22;39319;52.944;5.928;2023-07-22T13:26:25;20.00;96.30
53422;DHT22;39319;52.944;5.928;2023-07-22T13:28:51;20.00;96.60
53422;DHT22;39319;52.944;5.928;2023-07-22T13:31:19;20.20;96.40
53422;DHT22;39319;52.944;5.928;2023-07-22T13:33:45;20.30;95.30
53422;DHT22;39319;52.944;5.928;2023-07-22T13:36:11;20.50;94.60
53422;DHT22;39319;52.944;5.928;2023-07-22T13:38:36;20.50;94.00
53422;DHT22;39319;52.944;5.928;2023-07-22T13:41:02;20.50;93.60
53422;DHT22;39319;52.944;5.928;2023-07-22T13:43:28;20.40;94.10
53422;DHT22;39319;52.944;5.928;2023-07-22T13:45:54;20.50;93.60
53422;DHT22;39319;52.944;5.928;2023-07-22T13:48:19;20.50;93.60
53422;DHT22;39319;52.944;5.928;2023-07-22T13:50:47;20.40;93.80
53422;DHT22;39319;52.944;5.928;2023-07-22T13:53:15;20.50;94.30
53422;DHT22;39319;52.944;5.928;2023-07-22T13:55:40;20.50;93.70
53422;DHT22;39319;52.944;5.928;2023-07-22T13:58:07;20.50;93.10
53422;DHT22;39319;52.944;5.928;2023-07-22T14:00:34;20.50;92.50
53422;DHT22;39319;52.944;5.928;2023-07-22T14:02:59;20.50;92.30
53422;DHT22;39319;52.944;5.928;2023-07-22T14:05:25;20.50;92.40
53422;DHT22;39319;52.944;5.928;2023-07-22T14:07:53;20.40;92.70
53422;DHT22;39319;52.944;5.928;2023-07-22T14:10:19;20.40;92.70
53422;DHT22;39319;52.944;5.928;2023-07-22T14:12:44;20.40;93.00
53422;DHT22;39319;52.944;5.928;2023-07-22T14:15:10;20.40;92.60
53422;DHT22;39319;52.944;5.928;2023-07-22T14:17:36;20.30;92.90
53422;DHT22;39319;52.944;5.928;2023-07-22T14:20:04;20.30;92.70
53422;DHT22;39319;52.944;5.928;2023-07-22T14:22:30;20.20;93.30
53422;DHT22;39319;52.944;5.928;2023-07-22T14:24:56;20.20;93.90
53422;DHT22;39319;52.944;5.928;2023-07-22T14:27:22;20.10;93.50
53422;DHT22;39319;52.944;5.928;2023-07-22T14:29:47;20.10;93.60
53422;DHT22;39319;52.944;5.928;2023-07-22T14:32:15;19.90;93.60
53422;DHT22;39319;52.944;5.928;2023-07-22T14:34:44;19.70;94.10
53422;DHT22;39319;52.944;5.928;2023-07-22T14:37:09;19.80;94.50
53422;DHT22;39319;52.944;5.928;2023-07-22T14:39:35;19.70;95.10
53422;DHT22;39319;52.944;5.928;2023-07-22T14:42:01;19.80;94.50
53422;DHT22;39319;52.944;5.928;2023-07-22T14:44:27;19.70;94.50
53422;DHT22;39319;52.944;5.928;2023-07-22T14:46:52;19.60;94.40
53422;DHT22;39319;52.944;5.928;2023-07-22T14:49:18;19.70;94.30
53422;DHT22;39319;52.944;5.928;2023-07-22T14:51:44;19.60;94.40
53422;DHT22;39319;52.944;5.928;2023-07-22T14:54:09;19.60;94.70
53422;DHT22;39319;52.944;5.928;2023-07-22T14:56:35;19.50;94.80
53422;DHT22;39319;52.944;5.928;2023-07-22T14:59:01;19.60;94.50
53422;DHT22;39319;52.944;5.928;2023-07-22T15:01:26;19.50;94.50
53422;DHT22;39319;52.944;5.928;2023-07-22T15:03:52;19.60;94.50
53422;DHT22;39319;52.944;5.928;2023-07-22T15:06:18;19.50;94.60
53422;DHT22;39319;52.944;5.928;2023-07-22T15:08:44;19.40;94.50
53422;DHT22;39319;52.944;5.928;2023-07-22T15:11:09;19.60;94.40
53422;DHT22;39319;52.944;5.928;2023-07-22T15:13:35;19.60;94.80
53422;DHT22;39319;52.944;5.928;2023-07-22T15:16:03;19.50;95.20
53422;DHT22;39319;52.944;5.928;2023-07-22T15:18:29;19.50;95.30
53422;DHT22;39319;52.944;5.928;2023-07-22T15:20:57;19.60;94.40
53422;DHT22;39319;52.944;5.928;2023-07-22T15:23:23;19.50;94.30
53422;DHT22;39319;52.944;5.928;2023-07-22T15:25:51;19.50;94.50
53422;DHT22;39319;52.944;5.928;2023-07-22T15:28:17;19.40;94.90
53422;DHT22;39319;52.944;5.928;2023-07-22T15:30:42;19.50;94.80
53422;DHT22;39319;52.944;5.928;2023-07-22T15:33:08;19.50;94.90
53422;DHT22;39319;52.944;5.928;2023-07-22T15:35:34;19.50;94.80
53422;DHT22;39319;52.944;5.928;2023-07-22T15:38:00;19.50;94.50
53422;DHT22;39319;52.944;5.928;2023-07-22T15:40:25;19.50;94.60
53422;DHT22;39319;52.944;5.928;2023-07-22T15:42:51;19.50;94.90
53422;DHT22;39319;52.944;5.928;2023-07-22T15:45:17;19.50;94.70